createdAt,value
2022-08-24T00:32:39.931Z,12.45
2022-08-24T00:35:09.168Z,12.27
2022-08-24T00:37:37.221Z,13.05
2022-08-24T00:40:13.821Z,14.05
2022-08-24T00:42:42.155Z,14.15
2022-08-24T00:45:17.265Z,14.13
2022-08-24T00:48:05.271Z,12.77
2022-08-24T00:50:47.987Z,14.02
2022-08-24T00:53:39.029Z,14.00
2022-08-24T00:56:15.453Z,14.77
2022-08-24T00:58:57.180Z,13.95
2022-08-24T01:01:28.658Z,14.77
2022-08-24T01:04:00.017Z,13.95
2022-08-24T01:06:27.761Z,14.52
2022-08-24T01:08:57.063Z,14.95
2022-08-24T01:11:33.818Z,15.35
2022-08-24T01:14:05.487Z,14.75
2022-08-24T01:16:51.521Z,14.27
2022-08-24T01:19:31.329Z,13.55
2022-08-24T01:22:33.874Z,15.15
2022-08-24T01:25:01.805Z,13.65
2022-08-24T01:27:29.952Z,14.40
2022-08-24T01:30:02.653Z,13.70
2022-08-24T01:32:31.065Z,14.75
2022-08-24T01:34:59.423Z,14.18
2022-08-24T01:37:27.053Z,14.07
2022-08-24T01:39:59.253Z,14.03
2022-08-24T01:42:27.245Z,15.35
2022-08-24T01:44:54.862Z,15.38
2022-08-24T01:47:22.307Z,17.07
2022-08-24T01:49:50.023Z,15.07
2022-08-24T01:52:23.693Z,17.05
2022-08-24T01:54:52.345Z,15.60
2022-08-24T01:57:20.458Z,15.98
2022-08-24T01:59:50.449Z,12.90
2022-08-24T02:02:29.522Z,14.05
2022-08-24T02:04:57.106Z,14.93
2022-08-24T02:07:24.775Z,17.08
2022-08-24T02:09:53.179Z,15.52
2022-08-24T02:12:21.567Z,14.60
2022-08-24T02:14:49.037Z,14.38
2022-08-24T02:17:18.398Z,13.73
2022-08-24T02:19:47.104Z,13.95
2022-08-24T02:22:14.675Z,15.80
2022-08-24T02:24:42.619Z,16.63
2022-08-24T02:27:10.166Z,17.30
2022-08-24T02:29:38.031Z,18.35
2022-08-24T02:32:07.323Z,14.93
2022-08-24T02:34:34.671Z,14.38
2022-08-24T02:37:01.993Z,14.95
2022-08-24T02:39:29.386Z,13.95
2022-08-24T02:41:56.709Z,14.60
2022-08-24T02:44:24.721Z,14.35
2022-08-24T02:46:52.254Z,13.80
2022-08-24T02:49:21.404Z,14.03
2022-08-24T02:51:48.685Z,15.13
2022-08-24T02:54:18.404Z,14.45
2022-08-24T02:56:47.091Z,14.40
2022-08-24T02:59:16.208Z,14.63
2022-08-24T03:01:44.784Z,15.60
2022-08-24T03:04:12.909Z,15.05
2022-08-24T03:06:42.655Z,16.42
2022-08-24T03:09:10.975Z,26.52
2022-08-24T03:11:38.485Z,28.42
2022-08-24T03:14:06.978Z,37.08
2022-08-24T03:16:38.687Z,36.40
2022-08-24T03:19:06.523Z,35.35
2022-08-24T03:21:33.850Z,23.38
2022-08-24T03:24:01.262Z,17.83
2022-08-24T03:26:28.604Z,16.20
2022-08-24T03:28:56.184Z,15.60
2022-08-24T03:31:26.888Z,15.25
2022-08-24T03:33:54.265Z,15.63
2022-08-24T03:36:23.031Z,16.05
2022-08-24T03:38:50.622Z,15.10
2022-08-24T03:41:17.890Z,15.77
2022-08-24T03:43:51.323Z,16.65
2022-08-24T03:46:28.937Z,16.48
2022-08-24T03:48:59.251Z,16.55
2022-08-24T03:51:28.836Z,16.10
2022-08-24T03:53:59.025Z,15.73
2022-08-24T03:56:28.625Z,16.08
2022-08-24T03:59:00.038Z,16.13
2022-08-24T04:01:28.379Z,17.02
2022-08-24T04:03:56.251Z,15.55
2022-08-24T04:06:24.198Z,15.70
2022-08-24T04:08:53.195Z,17.15
2022-08-24T04:11:26.224Z,16.00
2022-08-24T04:13:57.345Z,16.48
2022-08-24T04:16:26.668Z,16.73
2022-08-24T04:18:54.128Z,16.45
2022-08-24T04:21:31.528Z,16.50
2022-08-24T04:24:05.590Z,16.95
2022-08-24T04:26:45.708Z,15.52
2022-08-24T04:29:17.340Z,16.42
2022-08-24T04:31:45.991Z,16.02
2022-08-24T04:34:16.107Z,14.98
2022-08-24T04:36:45.695Z,14.52
2022-08-24T04:39:14.131Z,16.48
2022-08-24T04:41:43.871Z,15.45
2022-08-24T04:44:13.175Z,15.05
2022-08-24T04:46:40.546Z,15.05
2022-08-24T04:49:09.188Z,15.30
2022-08-24T04:51:37.674Z,16.35
2022-08-24T04:56:34.278Z,10.48
2022-08-24T04:59:03.940Z,15.27
2022-08-24T05:01:32.895Z,15.85
2022-08-24T05:04:01.242Z,15.75
2022-08-24T05:06:32.646Z,15.43
2022-08-24T05:09:01.686Z,15.18
2022-08-24T05:11:29.217Z,13.50
2022-08-24T05:13:58.562Z,13.93
2022-08-24T05:16:27.841Z,13.80
2022-08-24T05:18:56.995Z,13.07
2022-08-24T05:21:25.298Z,14.02
2022-08-24T05:23:52.542Z,13.68
2022-08-24T05:29:02.322Z,13.02
2022-08-24T05:31:34.311Z,16.85
2022-08-24T05:34:02.987Z,17.83
2022-08-24T05:36:39.439Z,18.08
2022-08-24T05:39:14.642Z,15.25
2022-08-24T05:41:45.709Z,14.63
2022-08-24T05:44:17.058Z,14.93
2022-08-24T05:46:45.219Z,13.95
2022-08-24T05:49:13.876Z,12.85
2022-08-24T05:51:42.813Z,13.45
2022-08-24T05:54:13.654Z,12.98
2022-08-24T05:56:41.557Z,13.10
2022-08-24T05:59:09.072Z,13.02
2022-08-24T06:01:36.880Z,12.40
2022-08-24T06:04:05.480Z,12.32
2022-08-24T06:09:01.647Z,11.95
2022-08-24T06:11:39.572Z,10.60
2022-08-24T06:14:14.041Z,12.73
2022-08-24T06:16:45.407Z,12.65
2022-08-24T11:07:37.661Z,9.30
2022-08-24T11:10:10.285Z,10.00
2022-08-24T11:15:28.472Z,11.13
2022-08-24T11:18:02.935Z,10.07
2022-08-24T11:20:41.284Z,8.93
2022-08-24T11:23:19.109Z,8.77
2022-08-24T11:26:05.751Z,9.40
2022-08-24T11:28:45.835Z,10.45
2022-08-24T11:31:27.426Z,9.70
2022-08-24T11:34:34.681Z,7.45
2022-08-24T11:37:03.622Z,10.32
2022-08-24T11:39:38.511Z,10.27
2022-08-24T11:42:39.019Z,10.02
2022-08-24T11:45:52.500Z,9.88
2022-08-24T11:49:10.286Z,9.50
2022-08-24T11:51:49.239Z,7.90
2022-08-24T11:54:38.683Z,10.13
2022-08-24T11:57:18.252Z,10.07
2022-08-24T12:00:02.091Z,8.02
2022-08-24T12:03:02.694Z,8.57
2022-08-24T12:05:43.548Z,9.93
2022-08-24T12:08:33.743Z,10.48
2022-08-24T12:11:23.800Z,9.88
2022-08-24T12:14:15.014Z,8.52
2022-08-24T12:17:24.376Z,10.63
2022-08-24T12:20:18.970Z,9.73
2022-08-24T12:22:46.637Z,9.73
2022-08-24T12:25:42.803Z,9.07
2022-08-24T12:28:12.669Z,10.82
2022-08-24T12:30:40.143Z,9.10
2022-08-24T12:33:13.480Z,10.30
2022-08-24T12:35:52.945Z,9.40
2022-08-24T12:38:37.008Z,10.05
2022-08-24T12:41:23.649Z,10.57
2022-08-24T12:44:14.842Z,11.02
2022-08-24T12:46:45.406Z,9.98
2022-08-24T12:49:27.778Z,11.00
2022-08-24T12:52:14.215Z,10.50
2022-08-24T12:55:24.886Z,9.15
2022-08-24T12:58:53.805Z,10.25
2022-08-24T13:01:29.476Z,11.15
2022-08-24T13:04:44.621Z,10.50
2022-08-24T13:07:40.546Z,9.63
2022-08-24T13:10:23.770Z,10.90
2022-08-24T13:13:21.189Z,10.63
2022-08-24T13:15:48.525Z,11.30
2022-08-24T13:18:15.867Z,10.13
2022-08-24T13:21:03.127Z,9.07
2022-08-24T13:23:30.453Z,10.83
2022-08-24T13:26:27.934Z,10.65
2022-08-24T13:29:08.495Z,10.68
2022-08-24T13:31:43.551Z,10.32
2022-08-24T13:34:10.780Z,10.32
2022-08-24T13:36:54.743Z,11.02
2022-08-24T13:39:40.132Z,9.63
2022-08-24T13:42:23.455Z,9.60
2022-08-24T13:45:05.898Z,11.13
2022-08-24T13:47:54.483Z,10.35
2022-08-24T13:51:03.250Z,10.02
2022-08-24T13:54:45.747Z,11.25
2022-08-24T13:57:44.337Z,11.68
2022-08-24T14:00:39.982Z,10.70
2022-08-24T14:03:22.218Z,11.80
2022-08-24T14:05:57.475Z,11.10
2022-08-24T14:09:18.470Z,10.95
2022-08-24T14:12:32.452Z,11.43
2022-08-24T14:15:07.695Z,12.80
2022-08-24T14:18:04.383Z,11.68
2022-08-24T14:20:58.442Z,10.75
2022-08-24T14:24:02.097Z,11.23
2022-08-24T14:26:40.928Z,10.52
2022-08-24T14:29:20.282Z,10.55
2022-08-24T14:31:58.608Z,10.95
2022-08-24T14:35:33.555Z,10.93
2022-08-24T14:38:16.219Z,11.48
2022-08-24T14:41:18.021Z,10.13
2022-08-24T14:44:08.027Z,10.65
2022-08-24T14:47:15.819Z,11.00
2022-08-24T14:50:44.632Z,9.73
2022-08-24T14:53:52.358Z,11.20
2022-08-24T15:04:38.845Z,9.88
2022-08-24T15:07:39.154Z,10.95
2022-08-24T15:10:30.442Z,9.70
2022-08-24T15:13:07.815Z,10.55
2022-08-24T15:16:32.144Z,10.93
2022-08-24T15:20:08.178Z,10.38
2022-08-24T15:22:49.307Z,9.57
2022-08-24T15:26:01.627Z,11.35
2022-08-24T15:28:33.311Z,9.50
2022-08-24T15:31:07.937Z,10.15
2022-08-24T15:34:02.645Z,9.40
2022-08-24T15:36:34.074Z,10.45
2022-08-24T15:39:05.942Z,9.52
2022-08-24T15:41:39.191Z,8.90
2022-08-24T15:44:21.356Z,11.00
2022-08-24T15:46:57.000Z,9.50
2022-08-24T15:49:37.007Z,9.68
2022-08-24T15:52:10.574Z,9.93
2022-08-24T15:54:59.621Z,9.77
2022-08-24T15:57:35.220Z,10.27
2022-08-24T16:00:43.873Z,10.60
2022-08-24T16:03:48.692Z,10.70
2022-08-24T16:06:45.378Z,10.60
2022-08-24T16:09:21.546Z,10.13
2022-08-24T16:12:21.322Z,10.27
2022-08-24T16:15:10.880Z,11.48
2022-08-24T16:20:37.611Z,10.77
2022-08-24T16:23:22.030Z,11.02
2022-08-24T16:25:51.302Z,10.88
2022-08-24T16:28:21.832Z,10.15
2022-08-24T16:31:07.683Z,11.73
2022-08-24T16:33:47.531Z,11.55
2022-08-24T16:36:20.490Z,84.13
2022-08-24T16:38:51.738Z,16.38
2022-08-24T16:41:25.897Z,11.98
2022-08-24T16:43:54.343Z,11.73
2022-08-24T16:46:23.850Z,12.20
2022-08-24T16:48:54.375Z,11.18
2022-08-24T16:51:24.674Z,11.43
2022-08-24T16:53:54.099Z,11.30
2022-08-24T16:56:22.693Z,10.73
2022-08-24T16:58:51.018Z,10.45
2022-08-24T17:01:20.131Z,10.70
2022-08-24T17:03:47.539Z,10.73
2022-08-24T17:06:18.973Z,10.10
2022-08-24T17:08:47.827Z,10.27
2022-08-24T17:11:19.429Z,10.13
2022-08-24T17:13:50.485Z,10.82
2022-08-24T17:16:23.002Z,10.05
2022-08-24T17:18:51.531Z,10.23
2022-08-24T17:21:21.059Z,10.57
2022-08-24T17:23:48.523Z,10.65
2022-08-24T17:26:20.775Z,10.53
2022-08-24T17:28:54.498Z,10.00
2022-08-24T17:31:26.203Z,10.10
2022-08-24T17:33:56.552Z,10.48
2022-08-24T17:36:26.017Z,10.52
2022-08-24T17:39:02.211Z,10.57
2022-08-24T17:41:31.988Z,10.30
2022-08-24T17:44:01.196Z,10.32
2022-08-24T17:46:28.822Z,10.98
2022-08-24T17:49:00.638Z,10.35
2022-08-24T17:51:30.445Z,12.25
2022-08-24T17:53:59.031Z,11.80
2022-08-24T17:56:32.326Z,10.80
2022-08-24T17:59:20.245Z,11.55
2022-08-24T18:01:51.005Z,12.02
2022-08-24T18:04:22.472Z,11.57
2022-08-24T18:06:51.745Z,12.70
2022-08-24T18:09:29.183Z,12.68
2022-08-24T18:11:59.671Z,11.85
2022-08-24T18:14:29.689Z,12.20
2022-08-24T18:17:01.203Z,12.98
2022-08-24T18:19:29.668Z,12.50
2022-08-24T18:22:02.013Z,13.05
2022-08-24T18:24:32.707Z,13.20
2022-08-24T18:27:10.316Z,12.52
2022-08-24T18:29:42.643Z,13.40
2022-08-24T18:32:11.941Z,13.57
2022-08-24T18:34:40.311Z,13.65
2022-08-24T18:37:11.051Z,14.70
2022-08-24T18:39:38.616Z,14.20
2022-08-24T18:45:51.876Z,15.15
2022-08-24T18:48:19.893Z,15.00
2022-08-24T18:50:48.899Z,14.60
2022-08-24T18:53:18.517Z,14.98
2022-08-24T18:55:48.051Z,14.82
2022-08-24T18:58:15.901Z,15.88
2022-08-24T19:00:43.723Z,15.88
2022-08-24T19:03:18.830Z,16.80
2022-08-24T19:05:46.901Z,16.57
2022-08-24T19:08:14.787Z,17.23
2022-08-24T19:10:45.823Z,17.75
2022-08-24T19:13:16.154Z,17.00
2022-08-24T19:15:47.068Z,17.00
2022-08-24T19:18:16.958Z,17.60
2022-08-24T19:20:52.278Z,17.85
2022-08-24T19:23:36.214Z,17.52
2022-08-24T19:26:05.479Z,17.02
2022-08-24T19:28:34.175Z,17.48
2022-08-24T19:31:07.718Z,18.42
2022-08-24T19:33:41.974Z,19.83
2022-08-24T19:36:10.063Z,19.05
2022-08-24T19:38:42.156Z,20.60
2022-08-24T19:41:12.818Z,19.48
2022-08-24T19:44:04.593Z,18.10
2022-08-24T19:46:33.425Z,19.20
2022-08-24T19:49:01.060Z,19.70
2022-08-24T19:51:28.722Z,19.52
2022-08-24T19:54:00.123Z,19.48
2022-08-24T19:56:28.543Z,19.70
2022-08-24T19:59:02.921Z,21.23
2022-08-24T20:01:37.650Z,20.98
2022-08-24T20:04:07.364Z,20.50
2022-08-24T20:06:40.763Z,20.30
2022-08-24T20:09:09.136Z,22.03
2022-08-24T20:11:39.367Z,20.38
2022-08-24T20:14:07.949Z,20.63
2022-08-24T20:16:44.985Z,20.80
2022-08-24T20:19:12.710Z,22.17
2022-08-24T20:21:40.191Z,21.55
2022-08-24T20:24:08.762Z,23.10
2022-08-24T20:26:43.900Z,21.60
2022-08-24T20:29:13.369Z,22.77
2022-08-24T20:31:41.324Z,22.73
2022-08-24T20:34:08.693Z,24.27
2022-08-24T20:36:41.231Z,22.90
2022-08-24T20:39:13.311Z,24.30
2022-08-24T20:41:40.742Z,24.23
2022-08-24T20:44:11.870Z,23.97
2022-08-24T20:46:41.049Z,25.13
2022-08-24T20:49:17.035Z,23.35
2022-08-24T20:51:46.814Z,22.98
2022-08-24T20:54:14.913Z,25.08
2022-08-24T20:56:44.937Z,24.20
2022-08-24T20:59:15.264Z,24.83
2022-08-24T21:01:42.927Z,23.38
2022-08-24T21:04:13.479Z,24.63
2022-08-24T21:06:46.993Z,25.05
2022-08-24T21:09:18.359Z,25.30
2022-08-24T21:11:46.375Z,23.48
2022-08-24T21:14:13.685Z,25.13
2022-08-24T21:16:44.467Z,25.00
2022-08-24T21:19:17.690Z,26.15
2022-08-24T21:21:47.290Z,26.52
2022-08-24T21:24:15.694Z,24.15
2022-08-24T21:26:43.389Z,24.95
2022-08-24T21:29:13.686Z,26.08
2022-08-24T21:31:42.524Z,24.60
2022-08-24T21:34:28.294Z,24.65
2022-08-24T21:36:55.740Z,24.45
2022-08-24T21:39:23.185Z,24.70
2022-08-24T21:41:50.431Z,24.37
2022-08-24T21:44:17.771Z,24.75
2022-08-24T21:46:45.456Z,22.95
2022-08-24T21:49:12.961Z,22.45
2022-08-24T21:51:40.509Z,22.80
2022-08-24T21:54:08.422Z,22.13
2022-08-24T21:56:35.819Z,22.03
2022-08-24T21:59:03.812Z,22.95
2022-08-24T22:01:31.317Z,22.83
2022-08-24T22:03:59.006Z,23.33
2022-08-24T22:06:31.037Z,23.13
2022-08-24T22:09:00.338Z,24.07
2022-08-24T22:11:29.082Z,23.58
2022-08-24T22:13:57.395Z,22.85
2022-08-24T22:16:26.143Z,23.27
2022-08-24T22:18:54.115Z,23.88
2022-08-24T22:21:30.579Z,25.02
2022-08-24T22:23:59.667Z,23.30
2022-08-24T22:26:29.843Z,24.48
2022-08-24T22:28:57.749Z,24.85
2022-08-24T22:31:30.719Z,23.75
2022-08-24T22:34:02.377Z,24.27
2022-08-24T22:36:30.003Z,24.30
2022-08-24T22:38:59.578Z,24.03
2022-08-24T22:41:28.583Z,23.40
2022-08-24T22:44:16.894Z,24.75
2022-08-24T22:46:45.504Z,24.05
2022-08-24T22:49:14.365Z,24.58
2022-08-24T22:51:42.458Z,23.17
2022-08-24T22:54:11.617Z,22.20
2022-08-24T22:56:46.954Z,24.25
2022-08-24T22:59:24.195Z,25.17
2022-08-24T23:01:55.241Z,24.90
2022-08-24T23:04:28.909Z,24.73
2022-08-24T23:06:57.320Z,24.10
2022-08-24T23:09:24.919Z,24.58
2022-08-24T23:11:54.969Z,24.00
2022-08-24T23:14:25.458Z,23.73
2022-08-24T23:16:53.469Z,24.48
2022-08-24T23:19:43.903Z,24.77
2022-08-24T23:22:14.871Z,24.05
2022-08-24T23:24:43.821Z,28.23
2022-08-24T23:27:17.007Z,24.13
2022-08-24T23:29:46.110Z,25.73
2022-08-24T23:32:17.681Z,25.17
2022-08-24T23:34:49.771Z,24.75
2022-08-24T23:37:18.683Z,25.10
2022-08-24T23:39:46.376Z,24.65
2022-08-24T23:42:13.913Z,25.05
2022-08-24T23:44:41.265Z,23.63
2022-08-24T23:47:09.337Z,24.52
2022-08-24T23:49:36.938Z,24.77
2022-08-24T23:52:04.655Z,24.88
2022-08-24T23:54:32.145Z,25.08
2022-08-24T23:56:59.492Z,25.10
2022-08-24T23:59:29.613Z,26.35
